createdAt,value
2023-04-22T00:01:39.600Z,37.95
2023-04-22T00:04:07.462Z,37.47
2023-04-22T00:06:34.003Z,37.80
2023-04-22T00:09:00.435Z,38.13
2023-04-22T00:11:27.081Z,37.96
2023-04-22T00:13:53.641Z,37.98
2023-04-22T00:16:20.248Z,37.97
2023-04-22T00:18:46.658Z,37.79
2023-04-22T00:21:13.151Z,38.06
2023-04-22T00:23:39.609Z,37.90
2023-04-22T00:26:06.012Z,38.18
2023-04-22T00:28:32.840Z,38.13
2023-04-22T00:30:59.481Z,37.54
2023-04-22T00:33:25.899Z,37.81
2023-04-22T00:35:54.506Z,37.67
2023-04-22T00:38:21.114Z,38.08
2023-04-22T00:40:47.506Z,37.81
2023-04-22T00:43:14.787Z,37.88
2023-04-22T00:45:42.538Z,38.18
2023-04-22T00:48:09.400Z,37.84
2023-04-22T00:50:35.838Z,38.10
2023-04-22T00:53:02.219Z,38.05
2023-04-22T00:55:28.704Z,38.06
2023-04-22T00:57:55.636Z,38.63
2023-04-22T01:00:27.028Z,38.79
2023-04-22T01:02:55.038Z,38.01
2023-04-22T01:05:21.816Z,38.49
2023-04-22T01:07:48.236Z,38.66
2023-04-22T01:10:14.707Z,37.57
2023-04-22T01:12:41.091Z,38.37
2023-04-22T01:15:08.844Z,37.92
2023-04-22T01:17:35.615Z,38.16
2023-04-22T01:20:04.265Z,37.98
2023-04-22T01:22:36.980Z,38.23
2023-04-22T01:25:04.061Z,38.62
2023-04-22T01:27:30.868Z,38.35
2023-04-22T01:29:57.329Z,38.32
2023-04-22T01:32:24.207Z,38.32
2023-04-22T01:34:50.597Z,38.19
2023-04-22T01:37:18.016Z,38.69
2023-04-22T01:39:44.753Z,38.38
2023-04-22T01:42:11.704Z,38.76
2023-04-22T01:44:38.068Z,38.70
2023-04-22T01:47:05.270Z,38.42
2023-04-22T01:49:31.694Z,38.60
2023-04-22T01:51:58.360Z,38.23
2023-04-22T01:54:24.794Z,38.98
2023-04-22T01:56:54.953Z,38.63
2023-04-22T01:59:22.016Z,38.80
2023-04-22T02:01:48.392Z,38.77
2023-04-22T02:04:14.839Z,38.95
2023-04-22T02:06:41.189Z,38.88
2023-04-22T02:09:07.632Z,38.61
2023-04-22T02:11:33.999Z,38.92
2023-04-22T02:14:00.379Z,39.23
2023-04-22T02:16:26.827Z,38.93
2023-04-22T02:18:53.243Z,39.00
2023-04-22T02:21:19.650Z,38.91
2023-04-22T02:23:46.137Z,39.16
2023-04-22T02:26:12.500Z,39.32
2023-04-22T02:28:38.885Z,38.54
2023-04-22T02:31:05.438Z,38.54
2023-04-22T02:33:31.861Z,39.09
2023-04-22T02:35:58.222Z,39.26
2023-04-22T02:38:24.591Z,39.32
2023-04-22T02:40:50.978Z,39.45
2023-04-22T02:43:17.373Z,39.44
2023-04-22T02:45:43.795Z,39.44
2023-04-22T02:48:10.286Z,39.45
2023-04-22T02:50:36.752Z,40.23
2023-04-22T02:53:03.127Z,39.74
2023-04-22T02:55:29.539Z,39.56
2023-04-22T02:57:55.911Z,39.62
2023-04-22T03:00:22.368Z,39.79
2023-04-22T03:02:48.921Z,39.89
2023-04-22T03:05:15.971Z,39.76
2023-04-22T03:07:42.423Z,40.13
2023-04-22T03:10:09.287Z,40.15
2023-04-22T03:12:35.648Z,39.91
2023-04-22T03:15:02.502Z,40.25
2023-04-22T03:17:28.992Z,40.03
2023-04-22T03:19:55.808Z,40.54
2023-04-22T03:22:22.204Z,40.45
2023-04-22T03:24:48.578Z,40.32
2023-04-22T03:27:14.932Z,40.84
2023-04-22T03:29:41.683Z,39.78
2023-04-22T03:32:08.357Z,40.22
2023-04-22T03:34:36.957Z,40.25
2023-04-22T03:37:03.662Z,40.42
2023-04-22T03:39:30.044Z,40.33
2023-04-22T03:41:56.394Z,40.83
2023-04-22T03:44:22.752Z,41.05
2023-04-22T03:46:49.123Z,40.05
2023-04-22T03:49:15.911Z,41.32
2023-04-22T03:51:42.264Z,41.18
2023-04-22T03:54:08.933Z,40.64
2023-04-22T03:56:35.324Z,40.76
2023-04-22T03:59:01.714Z,41.12
2023-04-22T04:01:28.124Z,40.54
2023-04-22T04:03:54.764Z,40.75
2023-04-22T04:06:21.688Z,41.62
2023-04-22T04:08:48.108Z,41.35
2023-04-22T04:11:14.600Z,41.66
2023-04-22T04:13:41.018Z,41.21
2023-04-22T04:16:07.495Z,41.39
2023-04-22T04:18:33.940Z,41.28
2023-04-22T04:21:00.285Z,41.87
2023-04-22T04:23:27.165Z,41.21
2023-04-22T04:25:54.240Z,41.18
2023-04-22T04:28:20.638Z,42.01
2023-04-22T04:30:47.140Z,42.11
2023-04-22T04:33:16.680Z,42.17
2023-04-22T04:35:44.723Z,41.87
2023-04-22T04:38:12.741Z,41.79
2023-04-22T04:40:39.128Z,42.18
2023-04-22T04:43:08.423Z,42.67
2023-04-22T04:45:39.059Z,42.46
2023-04-22T04:48:08.989Z,41.82
2023-04-22T04:50:35.637Z,42.38
2023-04-22T04:53:02.373Z,42.54
2023-04-22T04:55:28.760Z,42.36
2023-04-22T04:57:55.143Z,42.02
2023-04-22T05:00:21.553Z,42.52
2023-04-22T05:02:48.142Z,42.40
2023-04-22T05:05:14.589Z,42.03
2023-04-22T05:07:40.949Z,42.03
2023-04-22T05:10:07.826Z,41.94
2023-04-22T05:12:34.262Z,41.70
2023-04-22T05:15:00.948Z,42.23
2023-04-22T05:17:27.876Z,42.09
2023-04-22T05:19:54.412Z,42.24
2023-04-22T05:22:20.790Z,42.21
2023-04-22T05:24:47.230Z,42.06
2023-04-22T05:27:13.793Z,42.66
2023-04-22T05:29:40.565Z,42.01
2023-04-22T05:32:08.796Z,42.51
2023-04-22T05:34:35.741Z,41.53
2023-04-22T05:37:05.752Z,41.78
2023-04-22T05:39:32.369Z,41.56
2023-04-22T05:41:58.802Z,41.72
2023-04-22T05:44:25.180Z,41.87
2023-04-22T05:46:51.601Z,41.67
2023-04-22T05:49:17.972Z,41.18
2023-04-22T05:51:44.335Z,41.60
2023-04-22T05:54:10.716Z,40.63
2023-04-22T05:56:37.193Z,40.63
2023-04-22T05:59:03.673Z,40.59
2023-04-22T06:01:30.049Z,41.23
2023-04-22T06:03:57.401Z,41.00
2023-04-22T06:06:24.144Z,40.46
2023-04-22T06:08:50.627Z,40.87
2023-04-22T06:11:16.979Z,40.69
2023-04-22T06:13:43.382Z,40.74
2023-04-22T06:16:09.785Z,40.05
2023-04-22T06:18:38.029Z,40.06
2023-04-22T06:21:05.098Z,40.90
2023-04-22T06:23:31.469Z,40.60
2023-04-22T06:25:58.526Z,40.22
2023-04-22T06:28:24.968Z,40.47
2023-04-22T06:30:51.421Z,40.93
2023-04-22T06:33:17.808Z,40.40
2023-04-22T06:35:44.612Z,39.44
2023-04-22T06:38:11.123Z,40.30
2023-04-22T06:40:37.496Z,40.45
2023-04-22T06:43:03.863Z,40.01
2023-04-22T06:45:30.247Z,40.00
2023-04-22T06:47:56.654Z,39.58
2023-04-22T06:50:23.078Z,40.03
2023-04-22T06:52:49.600Z,39.44
2023-04-22T06:55:15.979Z,39.71
2023-04-22T06:57:42.497Z,39.21
2023-04-22T07:00:09.176Z,38.34
2023-04-22T07:02:35.808Z,38.50
2023-04-22T07:05:02.303Z,38.76
2023-04-22T07:07:29.108Z,38.98
2023-04-22T07:09:55.522Z,38.15
2023-04-22T07:12:21.953Z,38.64
2023-04-22T07:14:49.435Z,38.54
2023-04-22T07:17:19.198Z,38.47
2023-04-22T07:19:45.641Z,37.85
2023-04-22T07:22:12.059Z,37.88
2023-04-22T07:24:39.247Z,38.19
2023-04-22T07:27:05.765Z,37.29
2023-04-22T07:29:32.133Z,37.51
2023-04-22T07:31:58.531Z,36.97
2023-04-22T07:34:24.902Z,37.13
2023-04-22T07:36:54.357Z,36.57
2023-04-22T07:39:20.810Z,36.77
2023-04-22T07:41:47.201Z,36.93
2023-04-22T07:44:17.260Z,36.99
2023-04-22T07:46:43.888Z,36.74
2023-04-22T07:49:10.372Z,35.89
2023-04-22T07:51:36.781Z,35.96
2023-04-22T07:54:03.203Z,35.66
2023-04-22T07:56:29.585Z,35.63
2023-04-22T07:58:55.970Z,35.69
2023-04-22T08:01:22.410Z,35.51
2023-04-22T08:03:49.214Z,35.19
2023-04-22T08:06:15.768Z,35.59
2023-04-22T08:08:42.130Z,34.73
2023-04-22T08:11:08.713Z,35.25
2023-04-22T08:13:35.133Z,34.11
2023-04-22T08:16:04.592Z,34.56
2023-04-22T08:18:31.057Z,34.79
2023-04-22T08:20:57.435Z,34.07
2023-04-22T08:23:23.818Z,34.23
2023-04-22T08:25:50.241Z,34.40
2023-04-22T08:28:16.658Z,34.07
2023-04-22T08:30:43.015Z,34.31
2023-04-22T08:33:09.545Z,33.88
2023-04-22T08:35:36.563Z,34.21
2023-04-22T08:38:03.012Z,33.52
2023-04-22T08:40:29.553Z,33.22
2023-04-22T08:42:56.035Z,33.17
2023-04-22T08:45:22.753Z,32.98
2023-04-22T08:47:50.060Z,33.09
2023-04-22T08:50:16.523Z,32.37
2023-04-22T08:52:43.527Z,32.72
2023-04-22T08:55:09.898Z,32.66
2023-04-22T08:57:38.268Z,32.31
2023-04-22T09:00:05.664Z,31.96
2023-04-22T09:02:33.236Z,32.21
2023-04-22T09:05:02.128Z,32.18
2023-04-22T09:07:31.000Z,31.94
2023-04-22T09:09:58.227Z,31.42
2023-04-22T09:12:25.737Z,32.13
2023-04-22T09:14:52.954Z,32.38
2023-04-22T09:17:30.885Z,31.40
2023-04-22T09:20:01.721Z,31.87
2023-04-22T09:22:29.714Z,31.50
2023-04-22T09:24:56.080Z,31.34
2023-04-22T09:27:24.985Z,31.22
2023-04-22T09:29:52.702Z,30.90
2023-04-22T09:32:19.385Z,30.80
2023-04-22T09:34:51.854Z,30.66
2023-04-22T09:37:26.435Z,30.53
2023-04-22T09:39:57.263Z,30.59
2023-04-22T09:42:23.694Z,30.24
2023-04-22T09:44:54.754Z,30.48
2023-04-22T09:47:23.549Z,30.38
2023-04-22T09:49:50.452Z,30.94
2023-04-22T09:52:26.897Z,30.21
2023-04-22T09:54:54.509Z,30.58
2023-04-22T09:57:21.373Z,30.40
2023-04-22T09:59:51.202Z,30.04
2023-04-22T10:02:17.667Z,30.54
2023-04-22T10:04:44.345Z,30.50
2023-04-22T10:07:10.750Z,29.46
2023-04-22T10:09:37.400Z,30.47
2023-04-22T10:12:05.107Z,29.50
2023-04-22T10:14:31.475Z,29.65
2023-04-22T10:17:00.628Z,29.15
2023-04-22T10:19:27.934Z,29.26
2023-04-22T10:22:01.087Z,28.74
2023-04-22T10:24:28.881Z,28.19
2023-04-22T10:26:59.982Z,28.30
2023-04-22T10:29:27.752Z,28.37
2023-04-22T10:31:59.382Z,28.25
2023-04-22T10:34:25.841Z,28.44
2023-04-22T10:37:00.142Z,27.36
2023-04-22T10:39:28.517Z,27.55
2023-04-22T10:42:06.948Z,27.14
2023-04-22T10:45:01.813Z,26.95
2023-04-22T10:47:35.906Z,26.52
2023-04-22T10:50:12.250Z,25.94
2023-04-22T10:52:39.614Z,26.21
2023-04-22T10:55:06.154Z,25.91
2023-04-22T10:57:38.200Z,24.74
2023-04-22T11:00:24.162Z,24.73
2023-04-22T11:03:05.701Z,25.36
2023-04-22T11:05:32.587Z,24.77
2023-04-22T11:08:08.723Z,24.18
2023-04-22T11:10:58.986Z,23.89
2023-04-22T11:13:25.360Z,23.98
2023-04-22T11:15:55.685Z,24.22
2023-04-22T11:18:27.038Z,24.32
2023-04-22T11:20:54.462Z,25.00
2023-04-22T11:23:23.924Z,24.47
2023-04-22T11:25:57.647Z,24.60
2023-04-22T11:28:24.163Z,25.28
2023-04-22T11:30:51.155Z,24.38
2023-04-22T11:33:20.585Z,24.41
2023-04-22T11:35:49.270Z,23.94
2023-04-22T11:38:15.672Z,24.79
2023-04-22T11:40:46.216Z,24.02
2023-04-22T11:43:13.548Z,24.42
2023-04-22T11:45:43.312Z,24.23
2023-04-22T11:48:11.545Z,23.84
2023-04-22T11:50:44.047Z,23.12
2023-04-22T11:53:16.611Z,23.66
2023-04-22T11:55:45.320Z,23.04
2023-04-22T11:58:15.389Z,23.18
2023-04-22T12:00:46.787Z,23.09
2023-04-22T12:03:24.889Z,23.07
2023-04-22T12:05:58.745Z,22.70
2023-04-22T12:08:30.231Z,22.92
2023-04-22T12:10:58.792Z,22.57
2023-04-22T12:13:30.471Z,21.99
2023-04-22T12:16:01.770Z,22.28
2023-04-22T12:18:36.479Z,21.58
2023-04-22T12:21:13.593Z,21.63
2023-04-22T12:23:50.622Z,21.19
2023-04-22T12:26:19.611Z,22.05
2023-04-22T12:28:47.001Z,21.50
2023-04-22T12:31:14.879Z,21.39
2023-04-22T12:33:41.743Z,20.90
2023-04-22T12:36:08.330Z,21.07
2023-04-22T12:38:35.065Z,20.88
2023-04-22T12:41:02.752Z,21.25
2023-04-22T12:43:29.215Z,20.79
2023-04-22T12:45:55.739Z,20.32
2023-04-22T12:48:23.395Z,19.67
2023-04-22T12:50:49.783Z,19.02
2023-04-22T12:53:16.604Z,17.04
2023-04-22T12:55:45.861Z,12.21
2023-04-22T12:58:12.535Z,12.81
2023-04-22T13:00:38.899Z,10.35
2023-04-22T13:03:05.373Z,11.56
2023-04-22T13:05:32.350Z,10.68
2023-04-22T13:08:06.610Z,11.84
2023-04-22T13:10:33.965Z,10.10
2023-04-22T13:13:16.088Z,10.26
2023-04-22T13:15:44.799Z,11.52
2023-04-22T13:18:11.202Z,9.56
2023-04-22T13:20:39.771Z,9.88
2023-04-22T13:23:06.152Z,9.06
2023-04-22T13:25:32.524Z,10.20
2023-04-22T13:27:58.913Z,10.21
2023-04-22T13:30:25.375Z,9.08
2023-04-22T13:32:51.999Z,8.76
2023-04-22T13:35:18.645Z,9.40
2023-04-22T13:37:46.206Z,10.12
2023-04-22T13:40:12.778Z,9.65
2023-04-22T13:42:39.185Z,10.45
2023-04-22T13:45:06.235Z,8.53
2023-04-22T13:47:32.635Z,9.11
2023-04-22T13:50:00.702Z,8.60
2023-04-22T13:52:27.183Z,9.35
2023-04-22T13:54:54.385Z,10.17
2023-04-22T13:57:20.828Z,10.58
2023-04-22T13:59:47.214Z,12.26
2023-04-22T14:02:13.630Z,10.15
2023-04-22T14:04:39.990Z,10.64
2023-04-22T14:07:06.664Z,10.67
2023-04-22T14:09:34.439Z,9.48
2023-04-22T14:12:01.367Z,9.78
2023-04-22T14:14:27.729Z,9.13
2023-04-22T14:16:54.287Z,11.14
2023-04-22T14:19:21.234Z,10.39
2023-04-22T14:21:47.624Z,8.70
2023-04-22T14:24:14.386Z,10.11
2023-04-22T14:26:41.066Z,10.79
2023-04-22T14:29:09.002Z,10.32
2023-04-22T14:31:35.442Z,9.92
2023-04-22T14:34:01.886Z,8.51
2023-04-22T14:36:28.266Z,9.32
2023-04-22T14:38:54.640Z,9.20
2023-04-22T14:41:21.596Z,8.73
2023-04-22T14:43:48.020Z,9.38
2023-04-22T14:46:14.402Z,9.43
2023-04-22T14:48:40.796Z,9.22
2023-04-22T14:51:07.160Z,9.19
2023-04-22T14:53:33.987Z,9.85
2023-04-22T14:56:00.548Z,8.82
2023-04-22T14:58:31.601Z,10.01
2023-04-22T15:00:59.720Z,9.46
2023-04-22T15:03:26.651Z,9.87
2023-04-22T15:05:54.716Z,9.15
2023-04-22T15:08:21.567Z,10.56
2023-04-22T15:10:47.964Z,10.20
2023-04-22T15:13:14.458Z,9.96
2023-04-22T15:15:40.880Z,8.36
2023-04-22T15:18:07.381Z,8.92
2023-04-22T15:20:33.850Z,9.70
2023-04-22T15:23:01.249Z,10.57
2023-04-22T15:25:27.611Z,10.93
2023-04-22T15:27:56.476Z,10.33
2023-04-22T15:30:23.616Z,10.27
2023-04-22T15:32:50.040Z,10.03
2023-04-22T15:35:16.465Z,12.20
2023-04-22T15:37:44.997Z,11.58
2023-04-22T15:40:11.590Z,11.00
2023-04-22T15:42:37.973Z,9.78
2023-04-22T15:45:04.943Z,12.42
2023-04-22T15:47:31.494Z,10.31
2023-04-22T15:50:05.932Z,9.93
2023-04-22T15:52:33.142Z,11.33
2023-04-22T15:55:01.493Z,10.18
2023-04-22T15:57:28.438Z,10.80
2023-04-22T16:00:06.787Z,10.93
2023-04-22T16:02:36.837Z,11.04
2023-04-22T16:05:04.152Z,10.76
2023-04-22T16:07:30.986Z,11.89
2023-04-22T16:09:57.435Z,12.49
2023-04-22T16:12:23.854Z,12.78
2023-04-22T16:14:50.285Z,12.36
2023-04-22T16:17:16.942Z,11.74
2023-04-22T16:19:43.604Z,11.40
2023-04-22T16:22:10.529Z,12.10
2023-04-22T16:24:36.949Z,13.39
2023-04-22T16:27:03.554Z,12.55
2023-04-22T16:29:29.946Z,12.31
2023-04-22T16:31:56.594Z,12.60
2023-04-22T16:34:22.967Z,13.09
2023-04-22T16:36:49.362Z,13.17
2023-04-22T16:39:15.766Z,14.04
2023-04-22T16:41:43.217Z,13.40
2023-04-22T16:44:09.609Z,16.16
2023-04-22T16:46:36.040Z,16.14
2023-04-22T16:49:02.469Z,16.97
2023-04-22T16:51:28.854Z,16.20
2023-04-22T16:53:55.871Z,16.42
2023-04-22T16:56:24.056Z,17.00
2023-04-22T16:58:50.475Z,17.34
2023-04-22T17:01:16.917Z,19.42
2023-04-22T17:03:43.597Z,19.36
2023-04-22T17:06:10.243Z,19.37
2023-04-22T17:08:36.613Z,18.40
2023-04-22T17:11:03.087Z,19.66
2023-04-22T17:13:29.475Z,19.96
2023-04-22T17:15:56.007Z,19.94
2023-04-22T17:18:22.441Z,21.95
2023-04-22T17:20:49.181Z,21.33
2023-04-22T17:23:15.716Z,22.29
2023-04-22T17:25:42.178Z,22.37
2023-04-22T17:28:08.851Z,22.67
2023-04-22T17:30:36.075Z,22.68
2023-04-22T17:33:02.638Z,23.41
2023-04-22T17:35:29.228Z,23.69
2023-04-22T17:37:57.710Z,23.86
2023-04-22T17:40:24.098Z,23.75
2023-04-22T17:42:51.127Z,24.76
2023-04-22T17:45:17.533Z,23.99
2023-04-22T17:47:43.929Z,24.76
2023-04-22T17:50:10.684Z,24.60
2023-04-22T17:52:37.122Z,25.43
2023-04-22T17:55:03.640Z,26.37
2023-04-22T17:57:31.082Z,26.08
2023-04-22T17:59:57.471Z,26.23
2023-04-22T18:02:25.114Z,26.31
2023-04-22T18:04:51.763Z,26.29
2023-04-22T18:07:18.166Z,26.34
2023-04-22T18:09:44.734Z,27.22
2023-04-22T18:12:11.183Z,27.11
2023-04-22T18:14:37.590Z,27.64
2023-04-22T18:17:04.356Z,27.65
2023-04-22T18:19:30.944Z,28.04
2023-04-22T18:22:00.387Z,28.95
2023-04-22T18:24:27.494Z,28.36
2023-04-22T18:26:53.906Z,28.22
2023-04-22T18:29:20.756Z,28.17
2023-04-22T18:31:47.342Z,28.41
2023-04-22T18:34:15.580Z,28.89
2023-04-22T18:36:41.998Z,28.41
2023-04-22T18:39:09.460Z,28.89
2023-04-22T18:41:37.953Z,28.58
2023-04-22T18:44:04.781Z,29.20
2023-04-22T18:46:31.231Z,28.93
2023-04-22T18:48:57.707Z,28.91
2023-04-22T18:51:24.109Z,28.89
2023-04-22T18:53:50.715Z,29.12
2023-04-22T18:56:17.089Z,29.28
2023-04-22T18:58:43.458Z,29.16
2023-04-22T19:01:09.927Z,29.30
2023-04-22T19:03:36.552Z,29.21
2023-04-22T19:06:03.389Z,29.29
2023-04-22T19:08:29.762Z,29.24
2023-04-22T19:10:56.151Z,29.93
2023-04-22T19:13:29.095Z,30.09
2023-04-22T19:15:56.593Z,30.19
2023-04-22T19:18:23.223Z,29.86
2023-04-22T19:20:49.817Z,29.84
2023-04-22T19:23:16.336Z,30.10
2023-04-22T19:25:42.755Z,30.23
2023-04-22T19:28:09.285Z,30.39
2023-04-22T19:30:35.677Z,30.47
2023-04-22T19:33:02.214Z,30.38
2023-04-22T19:35:28.634Z,30.67
2023-04-22T19:37:55.004Z,30.45
2023-04-22T19:40:21.397Z,30.38
2023-04-22T19:42:47.775Z,30.83
2023-04-22T19:45:14.139Z,31.05
2023-04-22T19:47:40.913Z,30.82
2023-04-22T19:50:08.529Z,30.98
2023-04-22T19:52:35.796Z,31.08
2023-04-22T19:55:08.767Z,31.38
2023-04-22T19:57:36.883Z,31.25
2023-04-22T20:00:07.100Z,31.53
2023-04-22T20:02:37.475Z,31.08
2023-04-22T20:05:05.604Z,31.63
2023-04-22T20:07:33.352Z,31.90
2023-04-22T20:10:02.199Z,31.41
2023-04-22T20:12:29.401Z,31.58
2023-04-22T20:14:59.970Z,31.44
2023-04-22T20:17:27.326Z,31.66
2023-04-22T20:19:54.720Z,31.62
2023-04-22T20:22:24.949Z,32.14
2023-04-22T20:25:01.949Z,32.00
2023-04-22T20:27:32.610Z,32.09
2023-04-22T20:30:00.273Z,31.92
2023-04-22T20:32:28.059Z,32.19
2023-04-22T20:34:55.639Z,31.59
2023-04-22T20:37:23.203Z,32.33
2023-04-22T20:39:50.438Z,31.79
2023-04-22T20:42:17.853Z,31.84
2023-04-22T20:44:44.564Z,32.30
2023-04-22T20:47:11.274Z,31.87
2023-04-22T20:49:42.868Z,32.22
2023-04-22T20:52:10.922Z,32.62
2023-04-22T20:54:38.073Z,32.67
2023-04-22T20:57:05.870Z,32.91
2023-04-22T20:59:32.869Z,32.54
2023-04-22T21:02:00.418Z,32.24
2023-04-22T21:04:27.785Z,32.64
2023-04-22T21:06:55.462Z,32.90
2023-04-22T21:09:26.083Z,33.11
2023-04-22T21:11:53.054Z,33.02
2023-04-22T21:14:22.056Z,32.37
2023-04-22T21:16:56.691Z,32.99
2023-04-22T21:19:23.506Z,33.12
2023-04-22T21:21:51.106Z,32.64
2023-04-22T21:24:18.480Z,32.92
2023-04-22T21:26:47.405Z,33.22
2023-04-22T21:29:13.942Z,33.49
2023-04-22T21:31:40.465Z,32.91
2023-04-22T21:34:09.514Z,33.03
2023-04-22T21:36:35.900Z,33.03
2023-04-22T21:39:04.505Z,32.51
2023-04-22T21:41:31.406Z,32.65
2023-04-22T21:43:57.817Z,32.82
2023-04-22T21:46:24.575Z,32.97
2023-04-22T21:48:51.021Z,33.61
2023-04-22T21:51:17.481Z,33.31
2023-04-22T21:53:44.488Z,33.12
2023-04-22T21:56:11.080Z,33.10
2023-04-22T21:58:37.520Z,33.22
2023-04-22T22:01:04.043Z,33.10
2023-04-22T22:03:31.609Z,33.42
2023-04-22T22:05:58.122Z,33.57
2023-04-22T22:08:24.534Z,33.05
2023-04-22T22:10:51.108Z,33.51
2023-04-22T22:13:17.531Z,33.23
2023-04-22T22:15:44.096Z,33.12
2023-04-22T22:18:10.588Z,33.21
2023-04-22T22:20:36.954Z,33.26
2023-04-22T22:23:04.321Z,33.31
2023-04-22T22:25:30.779Z,33.95
2023-04-22T22:27:57.150Z,33.25
2023-04-22T22:30:23.814Z,33.48
2023-04-22T22:32:50.396Z,33.07
2023-04-22T22:35:16.765Z,33.45
2023-04-22T22:37:44.541Z,33.69
2023-04-22T22:40:11.727Z,33.63
2023-04-22T22:42:38.089Z,33.67
2023-04-22T22:45:05.167Z,34.35
2023-04-22T22:47:31.732Z,34.20
2023-04-22T22:49:58.162Z,34.42
2023-04-22T22:52:24.576Z,34.10
2023-04-22T22:54:51.932Z,34.25
2023-04-22T22:57:18.307Z,34.42
2023-04-22T22:59:44.684Z,34.92
2023-04-22T23:02:11.394Z,34.62
2023-04-22T23:04:39.410Z,34.95
2023-04-22T23:07:06.031Z,35.13
2023-04-22T23:09:32.424Z,34.82
2023-04-22T23:11:58.798Z,34.55
2023-04-22T23:14:28.153Z,35.38
2023-04-22T23:16:54.584Z,35.09
2023-04-22T23:19:21.138Z,35.43
2023-04-22T23:21:48.697Z,35.61
2023-04-22T23:24:15.797Z,35.61
2023-04-22T23:26:43.012Z,35.74
2023-04-22T23:29:09.556Z,36.00
2023-04-22T23:31:36.262Z,36.11
2023-04-22T23:34:05.214Z,36.20
2023-04-22T23:36:33.701Z,36.39
2023-04-22T23:39:00.832Z,36.24
2023-04-22T23:41:27.458Z,36.54
2023-04-22T23:43:53.927Z,36.60
2023-04-22T23:46:20.500Z,36.38
2023-04-22T23:48:47.249Z,36.54
2023-04-22T23:51:16.271Z,36.75
2023-04-22T23:53:43.893Z,36.87
2023-04-22T23:56:11.095Z,36.72
2023-04-22T23:58:37.685Z,37.68
